Bookmark and Share
Track history (hours):
 

Tokuyo Maru No.15

Last reported at 2014-Apr-19 04:09 UTC. Time now 2014-Apr-19 17:09 UTC.
Position N 35°58' E 140°44'.

Length 66 m; draft 4.5 m.

Type: Tanker. MMSI: 431402034.

NotesDate/timePositionNaut miles runAvg speedWind from/ knotsBaromVisibWave heightAir tempDewpointWater temp
2014-Apr-19 04:09N 35°58' E 140°44'35 9.4
2014-Apr-19 00:26N 35°23' E 140°37'1011.1
2014-Apr-18 23:34N 35°16' E 140°29'1410.5
2014-Apr-18 22:11N 35°05' E 140°18'711.4
2014-Apr-18 21:33N 35°01' E 140°10'1211.4
2014-Apr-18 20:28N 34°54' E 139°58'1311.3
2014-Apr-18 19:18N 34°51' E 139°42'  
2014-Apr-15 18:26N 34°51' E 139°46'1211.4
2014-Apr-15 17:24N 34°54' E 139°59'1211.4
2014-Apr-15 16:23N 35°01' E 140°11'2110.6
2014-Apr-15 14:22N 35°16' E 140°30'13 0.7
2014-Apr-14 19:33N 35°26' E 140°39'1313.6
2014-Apr-14 18:34N 35°15' E 140°29'2512.7
2014-Apr-14 16:33N 34°58' E 140°07'19 9.5
2014-Apr-14 14:34N 34°59' E 139°44'1313.1
2014-Apr-14 13:33N 35°12' E 139°46'2010.1
2014-Apr-14 11:33N 35°31' E 139°56'8 8.0
2014-Apr-14 10:33N 35°32' E 140°05'0 0.0
2014-Apr-14 08:32N 35°32' E 140°05'0 0.0
2014-Apr-14 05:32N 35°32' E 140°05'7 1.0
2014-Apr-13 22:34N 35°34' E 139°57'2 1.9
2014-Apr-13 21:32N 35°34' E 139°55'0 0.0
2014-Apr-13 20:32N 35°34' E 139°55'0 0.0
2014-Apr-13 19:32N 35°34' E 139°55'0 0.0
2014-Apr-13 18:32N 35°34' E 139°55'0 0.0
2014-Apr-13 17:32N 35°34' E 139°55'0 0.0
2014-Apr-13 16:32N 35°34' E 139°55'0 0.1
2014-Apr-13 15:29N 35°34' E 139°55'0 0.1
2014-Apr-13 14:29N 35°35' E 139°55'0 0.0
2014-Apr-13 13:32N 35°35' E 139°55'0 0.0
2014-Apr-13 12:29N 35°35' E 139°55'0 0.0
2014-Apr-13 11:32N 35°35' E 139°55'0 0.0
2014-Apr-13 10:29N 35°35' E 139°55'0 0.1
2014-Apr-13 09:32N 35°35' E 139°55'0 0.0
2014-Apr-13 08:26N 35°35' E 139°55'0 0.0
2014-Apr-13 07:32N 35°35' E 139°55'0 0.0
2014-Apr-13 06:32N 35°35' E 139°55'0 0.0
2014-Apr-13 05:29N 35°35' E 139°55'0 0.0
2014-Apr-13 04:32N 35°35' E 139°55'0 0.0
2014-Apr-13 03:29N 35°35' E 139°55'0 0.0
2014-Apr-13 02:32N 35°35' E 139°55'0 0.0
2014-Apr-13 01:32N 35°35' E 139°55'0 0.1
2014-Apr-13 00:32N 35°34' E 139°55'0 0.1
2014-Apr-12 23:32N 35°34' E 139°55'0 0.0
2014-Apr-12 22:26N 35°34' E 139°55'0 0.0
2014-Apr-12 21:32N 35°34' E 139°55'0 0.0
2014-Apr-12 20:23N 35°34' E 139°55'3 3.3
2014-Apr-12 19:34N 35°32' E 139°54'1212.1
2014-Apr-12 18:33N 35°22' E 139°45'1111.3
2014-Apr-12 17:34N 35°11' E 139°46'1211.7
2014-Apr-12 16:34N 35°02' E 139°36'229 6.7
2014-Apr-11 06:19N 34°22' E 135°02'1012.5
2014-Apr-11 05:32N 34°28' E 135°11'1312.3
2014-Apr-11 04:30N 34°33' E 135°25'0 0.0
2014-Apr-10 22:32N 34°33' E 135°25'4 4.5
2014-Apr-10 21:32N 34°32' E 135°20'0 0.0
2014-Apr-10 20:26N 34°32' E 135°20'0 0.0
2014-Apr-10 19:20N 34°32' E 135°20'0 0.0
2014-Apr-10 18:32N 34°32' E 135°20'0 0.0
2014-Apr-10 17:26N 34°32' E 135°20'0 0.0
2014-Apr-10 16:32N 34°32' E 135°20'0 0.0
2014-Apr-10 15:32N 34°32' E 135°20'0 0.0
2014-Apr-10 14:32N 34°32' E 135°20'0 0.0
2014-Apr-10 13:32N 34°32' E 135°20'0 0.0
2014-Apr-10 12:32N 34°32' E 135°20'0 0.0
2014-Apr-10 11:32N 34°32' E 135°20'0 0.0
2014-Apr-10 10:26N 34°32' E 135°20'0 0.0
2014-Apr-10 09:32N 34°32' E 135°20'0 0.0
2014-Apr-10 08:32N 34°32' E 135°20'0 0.0
2014-Apr-10 07:20N 34°32' E 135°20'0 0.1
2014-Apr-10 06:32N 34°32' E 135°20'0 0.0
2014-Apr-10 05:08N 34°32' E 135°20'0 0.0
2014-Apr-10 04:32N 34°32' E 135°20'0 0.0
2014-Apr-10 03:20N 34°32' E 135°20'0 0.0
2014-Apr-10 02:32N 34°32' E 135°20'0 0.0
2014-Apr-10 01:20N 34°32' E 135°20'0 0.0
2014-Apr-10 00:32N 34°32' E 135°20'0 0.0
2014-Apr-09 23:26N 34°33' E 135°20'1 1.2
2014-Apr-09 22:34N 34°32' E 135°19'1312.6
2014-Apr-09 21:34N 34°24' E 135°07'1212.1
2014-Apr-09 20:33N 34°13' E 134°60'  

Dump ship's entire track history

sailing weather and tide predictions

Tokuyo Maru No.15 — JD2184 — position and weather